createdAt,value
2018-06-27T00:00:11.324Z,14.10
2018-06-27T00:01:11.253Z,14.07
2018-06-27T00:02:11.211Z,14.11
2018-06-27T00:03:11.157Z,14.14
2018-06-27T00:04:11.115Z,14.22
2018-06-27T00:05:11.096Z,14.22
2018-06-27T00:06:11.011Z,14.26
2018-06-27T00:07:10.963Z,14.25
2018-06-27T00:08:10.914Z,14.37
2018-06-27T00:09:10.866Z,14.36
2018-06-27T00:10:10.851Z,14.40
2018-06-27T00:11:10.771Z,14.44
2018-06-27T00:12:10.727Z,14.47
2018-06-27T00:13:10.677Z,14.51
2018-06-27T00:14:10.628Z,14.55
2018-06-27T00:15:10.603Z,14.59
2018-06-27T00:16:10.534Z,14.61
2018-06-27T00:17:10.486Z,14.58
2018-06-27T00:18:10.437Z,14.66
2018-06-27T00:19:10.384Z,14.66
2018-06-27T00:20:10.364Z,14.77
2018-06-27T00:21:10.290Z,14.74
2018-06-27T00:22:10.242Z,14.68
2018-06-27T00:23:10.197Z,14.63
2018-06-27T00:24:10.146Z,14.70
2018-06-27T00:25:10.126Z,14.63
2018-06-27T00:26:10.049Z,14.66
2018-06-27T00:27:10.012Z,14.77
2018-06-27T00:28:09.958Z,14.82
2018-06-27T00:29:09.908Z,14.82
2018-06-27T00:30:09.887Z,14.93
2018-06-27T00:31:09.809Z,14.81
2018-06-27T00:32:09.763Z,14.77
2018-06-27T00:33:09.714Z,14.81
2018-06-27T00:34:09.671Z,14.87
2018-06-27T00:35:09.643Z,14.81
2018-06-27T00:36:09.580Z,14.78
2018-06-27T00:37:09.522Z,14.84
2018-06-27T00:38:09.478Z,14.85
2018-06-27T00:39:09.426Z,14.70
2018-06-27T00:40:09.405Z,14.81
2018-06-27T00:41:09.331Z,14.81
2018-06-27T00:42:09.283Z,14.77
2018-06-27T00:43:09.240Z,14.77
2018-06-27T00:44:09.192Z,14.78
2018-06-27T00:45:09.163Z,14.68
2018-06-27T00:46:09.091Z,14.59
2018-06-27T00:47:09.053Z,14.47
2018-06-27T00:48:08.996Z,14.53
2018-06-27T00:49:08.953Z,14.47
2018-06-27T00:50:08.921Z,14.30
2018-06-27T00:51:08.864Z,14.36
2018-06-27T00:52:08.801Z,14.22
2018-06-27T00:53:08.756Z,14.18
2018-06-27T00:54:08.707Z,14.15
2018-06-27T00:55:08.682Z,14.19
2018-06-27T00:56:08.612Z,14.11
2018-06-27T00:57:08.561Z,14.10
2018-06-27T00:58:08.516Z,14.03
2018-06-27T00:59:08.470Z,13.97
2018-06-27T01:00:08.453Z,14.01
2018-06-27T01:01:08.370Z,13.97
2018-06-27T01:02:08.320Z,14.00
2018-06-27T01:03:08.275Z,13.96
2018-06-27T01:04:08.224Z,13.89
2018-06-27T01:05:08.178Z,13.83
2018-06-27T01:06:08.157Z,13.85
2018-06-27T01:07:08.087Z,13.86
2018-06-27T01:08:08.038Z,13.83
2018-06-27T01:09:07.984Z,13.85
2018-06-27T01:10:07.942Z,13.80
2018-06-27T01:11:07.911Z,13.80
2018-06-27T01:12:07.842Z,13.83
2018-06-27T01:13:07.792Z,13.80
2018-06-27T01:14:07.747Z,13.72
2018-06-27T01:15:07.696Z,13.70
2018-06-27T01:16:07.670Z,13.65
2018-06-27T01:17:07.600Z,13.70
2018-06-27T01:18:07.551Z,13.78
2018-06-27T01:19:07.504Z,13.80
2018-06-27T01:20:07.502Z,13.85
2018-06-27T01:21:07.429Z,13.89
2018-06-27T01:22:07.360Z,13.88
2018-06-27T01:23:07.311Z,13.95
2018-06-27T01:24:07.266Z,13.93
2018-06-27T01:25:07.210Z,13.97
2018-06-27T01:26:07.188Z,13.97
2018-06-27T01:27:07.116Z,14.08
2018-06-27T01:28:07.074Z,14.05
2018-06-27T01:29:07.021Z,14.13
2018-06-27T01:30:06.973Z,14.14
2018-06-27T01:31:06.945Z,14.10
2018-06-27T01:32:06.876Z,14.11
2018-06-27T01:33:06.827Z,14.18
2018-06-27T01:34:06.776Z,14.08
2018-06-27T01:35:06.730Z,14.14
2018-06-27T01:36:06.705Z,14.18
2018-06-27T01:37:06.637Z,14.15
2018-06-27T01:38:06.587Z,14.22
2018-06-27T01:39:06.536Z,14.18
2018-06-27T01:40:06.488Z,14.18
2018-06-27T01:41:06.466Z,14.20
2018-06-27T01:42:06.393Z,14.22
2018-06-27T01:43:06.344Z,14.13
2018-06-27T01:44:06.300Z,14.13
2018-06-27T01:45:06.248Z,14.08
2018-06-27T01:46:06.224Z,14.08
2018-06-27T01:47:06.153Z,14.14
2018-06-27T01:48:06.104Z,14.07
2018-06-27T01:49:06.053Z,14.03
2018-06-27T01:50:06.005Z,13.96
2018-06-27T01:51:05.979Z,13.96
2018-06-27T01:52:05.907Z,13.92
2018-06-27T01:53:05.856Z,14.03
2018-06-27T01:54:05.806Z,14.00
2018-06-27T01:55:05.764Z,13.96
2018-06-27T01:56:05.744Z,14.03
2018-06-27T01:57:05.664Z,13.96
2018-06-27T01:58:05.621Z,14.01
2018-06-27T01:59:05.568Z,14.01
2018-06-27T02:00:05.539Z,13.96
2018-06-27T02:01:05.497Z,13.97
2018-06-27T02:02:05.426Z,13.95
2018-06-27T02:03:05.377Z,13.97
2018-06-27T02:04:05.329Z,14.01
2018-06-27T02:05:05.275Z,13.96
2018-06-27T02:06:05.252Z,13.89
2018-06-27T02:07:05.185Z,13.95
2018-06-27T02:08:05.131Z,13.96
2018-06-27T02:09:05.092Z,13.95
2018-06-27T02:10:05.035Z,13.96
2018-06-27T02:11:05.014Z,13.89
2018-06-27T02:12:04.942Z,13.90
2018-06-27T02:13:04.890Z,13.88
2018-06-27T02:14:04.843Z,13.86
2018-06-27T02:15:04.800Z,13.85
2018-06-27T02:16:04.770Z,13.88
2018-06-27T02:17:04.702Z,13.93
2018-06-27T02:18:04.772Z,13.90
2018-06-27T02:19:04.601Z,13.86
2018-06-27T02:20:04.553Z,13.86
2018-06-27T02:21:04.526Z,13.83
2018-06-27T02:22:04.456Z,13.83
2018-06-27T02:23:04.410Z,13.90
2018-06-27T02:24:04.359Z,13.82
2018-06-27T02:25:04.315Z,13.85
2018-06-27T02:26:04.288Z,13.93
2018-06-27T02:27:04.214Z,13.83
2018-06-27T02:28:04.167Z,13.88
2018-06-27T02:29:04.116Z,13.85
2018-06-27T02:30:04.066Z,13.90
2018-06-27T02:31:04.051Z,13.86
2018-06-27T02:32:03.971Z,13.88
2018-06-27T02:33:03.928Z,13.83
2018-06-27T02:34:03.884Z,13.90
2018-06-27T02:35:03.832Z,13.89
2018-06-27T02:36:03.778Z,13.89
2018-06-27T02:37:03.751Z,13.89
2018-06-27T02:38:03.679Z,13.86
2018-06-27T02:39:03.636Z,13.85
2018-06-27T02:40:03.583Z,13.90
2018-06-27T02:41:03.538Z,13.90
2018-06-27T02:42:03.514Z,13.86
2018-06-27T02:43:03.438Z,13.89
2018-06-27T02:44:03.394Z,13.89
2018-06-27T02:45:03.345Z,13.85
2018-06-27T02:46:03.293Z,13.78
2018-06-27T02:47:03.269Z,13.86
2018-06-27T02:48:03.198Z,13.75
2018-06-27T02:49:03.150Z,13.68
2018-06-27T02:50:03.101Z,13.70
2018-06-27T02:51:03.054Z,13.67
2018-06-27T02:52:03.031Z,13.74
2018-06-27T02:53:02.958Z,13.71
2018-06-27T02:54:02.908Z,13.70
2018-06-27T02:55:02.859Z,13.70
2018-06-27T02:56:02.813Z,13.63
2018-06-27T02:57:02.783Z,13.70
2018-06-27T02:58:02.713Z,13.59
2018-06-27T02:59:02.665Z,13.67
2018-06-27T03:00:02.618Z,13.64
2018-06-27T03:01:02.572Z,13.59
2018-06-27T03:02:02.545Z,13.65
2018-06-27T03:03:02.475Z,13.64
2018-06-27T03:04:02.430Z,13.60
2018-06-27T03:05:02.372Z,13.64
2018-06-27T03:06:02.324Z,13.53
2018-06-27T03:07:02.301Z,13.64
2018-06-27T03:08:02.227Z,13.68
2018-06-27T03:09:02.179Z,13.59
2018-06-27T03:10:02.134Z,13.65
2018-06-27T03:11:02.086Z,13.60
2018-06-27T03:12:02.057Z,13.64
2018-06-27T03:13:01.988Z,13.72
2018-06-27T03:14:01.940Z,13.74
2018-06-27T03:15:01.893Z,13.75
2018-06-27T03:16:01.845Z,13.78
2018-06-27T03:17:01.817Z,13.75
2018-06-27T03:18:01.755Z,13.72
2018-06-27T03:19:01.698Z,13.67
2018-06-27T03:20:01.684Z,13.75
2018-06-27T03:21:01.597Z,13.77
2018-06-27T03:22:01.580Z,13.74
2018-06-27T03:23:01.504Z,13.70
2018-06-27T03:24:01.456Z,13.75
2018-06-27T03:25:01.416Z,13.78
2018-06-27T03:26:01.359Z,13.77
2018-06-27T03:27:01.333Z,13.77
2018-06-27T03:28:01.261Z,13.77
2018-06-27T03:29:01.215Z,13.77
2018-06-27T03:30:01.166Z,13.77
2018-06-27T03:31:01.116Z,13.65
2018-06-27T03:32:01.097Z,13.78
2018-06-27T03:33:01.020Z,13.85
2018-06-27T03:34:00.971Z,13.82
2018-06-27T03:35:00.925Z,13.80
2018-06-27T03:36:00.874Z,13.82
2018-06-27T03:37:00.849Z,13.78
2018-06-27T03:38:00.780Z,13.75
2018-06-27T03:39:00.730Z,13.77
2018-06-27T03:40:00.680Z,13.67
2018-06-27T03:41:00.639Z,13.74
2018-06-27T03:42:00.606Z,13.78
2018-06-27T03:43:00.535Z,13.65
2018-06-27T03:44:00.489Z,13.70
2018-06-27T03:45:00.436Z,13.68
2018-06-27T03:46:00.390Z,13.71
2018-06-27T03:47:00.366Z,13.72
2018-06-27T03:48:00.305Z,13.71
2018-06-27T03:49:00.245Z,13.74
2018-06-27T03:50:00.200Z,13.75
2018-06-27T03:51:00.150Z,13.72
2018-06-27T03:52:00.123Z,13.71
2018-06-27T03:53:00.051Z,13.74
2018-06-27T03:54:00.007Z,13.70
2018-06-27T03:54:59.953Z,13.67
2018-06-27T03:55:59.909Z,13.71
2018-06-27T03:56:59.879Z,13.74
2018-06-27T03:57:59.809Z,13.67
2018-06-27T03:58:59.820Z,13.67
2018-06-27T03:59:59.711Z,13.60
2018-06-27T04:00:59.660Z,13.63
2018-06-27T04:01:59.641Z,13.68
2018-06-27T04:02:59.571Z,13.64
2018-06-27T04:03:59.518Z,13.70
2018-06-27T04:04:59.474Z,13.60
2018-06-27T04:05:59.423Z,13.74
2018-06-27T04:06:59.373Z,13.67
2018-06-27T04:07:59.355Z,13.75
2018-06-27T04:08:59.272Z,13.75
2018-06-27T04:09:59.227Z,13.64
2018-06-27T04:10:59.178Z,13.60
2018-06-27T04:11:59.132Z,13.71
2018-06-27T04:12:59.150Z,13.74
2018-06-27T04:13:59.034Z,13.77
2018-06-27T04:14:58.995Z,13.77
2018-06-27T04:15:58.943Z,13.78
2018-06-27T04:16:58.891Z,13.83
2018-06-27T04:17:58.863Z,13.88
2018-06-27T04:18:58.795Z,13.82
2018-06-27T04:19:58.749Z,13.93
2018-06-27T04:21:05.729Z,13.96
2018-06-27T04:21:58.650Z,14.00
2018-06-27T04:22:58.625Z,13.97
2018-06-27T04:23:58.558Z,14.00
2018-06-27T04:24:58.503Z,14.05
2018-06-27T04:25:58.481Z,14.10
2018-06-27T04:26:58.407Z,14.07
2018-06-27T04:27:58.380Z,14.10
2018-06-27T04:28:58.307Z,14.11
2018-06-27T04:29:58.258Z,14.14
2018-06-27T04:30:58.214Z,14.08
2018-06-27T04:31:58.166Z,14.18
2018-06-27T04:32:58.141Z,14.18
2018-06-27T04:33:58.066Z,14.14
2018-06-27T04:34:58.020Z,14.15
2018-06-27T04:35:58.132Z,14.19
2018-06-27T04:36:57.925Z,14.28
2018-06-27T04:37:57.901Z,14.20
2018-06-27T04:38:57.829Z,14.38
2018-06-27T04:39:57.780Z,14.37
2018-06-27T04:40:57.728Z,14.41
2018-06-27T04:41:57.686Z,14.43
2018-06-27T04:42:57.665Z,14.36
2018-06-27T04:43:57.590Z,14.48
2018-06-27T04:44:57.541Z,14.61
2018-06-27T04:45:57.492Z,14.68
2018-06-27T04:46:57.444Z,14.65
2018-06-27T04:47:57.418Z,14.73
2018-06-27T04:48:57.350Z,14.77
2018-06-27T04:49:57.304Z,14.84
2018-06-27T04:50:57.251Z,14.87
2018-06-27T04:51:57.203Z,14.95
2018-06-27T04:52:57.179Z,14.96
2018-06-27T04:53:57.109Z,14.97
2018-06-27T04:54:57.085Z,14.97
2018-06-27T04:55:57.010Z,15.00
2018-06-27T04:56:56.967Z,14.99
2018-06-27T04:57:56.947Z,15.04
2018-06-27T04:58:56.865Z,14.99
2018-06-27T04:59:56.822Z,15.14
2018-06-27T05:00:56.775Z,15.21
2018-06-27T05:01:56.727Z,15.32
2018-06-27T05:02:56.709Z,15.33
2018-06-27T05:03:56.633Z,15.54
2018-06-27T05:04:56.580Z,15.57
2018-06-27T05:05:56.540Z,15.70
2018-06-27T05:06:56.487Z,15.83
2018-06-27T05:07:56.464Z,15.79
2018-06-27T05:08:56.391Z,15.76
2018-06-27T05:09:56.348Z,15.65
2018-06-27T05:10:56.296Z,15.60
2018-06-27T05:11:56.250Z,15.54
2018-06-27T05:12:56.229Z,15.60
2018-06-27T05:13:56.158Z,15.62
2018-06-27T05:14:56.114Z,15.68
2018-06-27T05:15:56.111Z,15.83
2018-06-27T05:16:56.013Z,15.90
2018-06-27T05:17:55.991Z,15.82
2018-06-27T05:18:55.923Z,15.90
2018-06-27T05:19:55.873Z,15.85
2018-06-27T05:20:55.827Z,15.80
2018-06-27T05:21:55.778Z,15.85
2018-06-27T05:22:55.753Z,16.02
2018-06-27T05:23:55.682Z,16.13
2018-06-27T05:24:55.639Z,16.24
2018-06-27T05:25:55.590Z,16.13
2018-06-27T05:26:55.543Z,16.31
2018-06-27T05:27:55.531Z,16.25
2018-06-27T05:28:55.449Z,16.34
2018-06-27T05:29:55.404Z,16.38
2018-06-27T05:30:55.361Z,16.39
2018-06-27T05:31:55.308Z,16.57
2018-06-27T05:32:55.261Z,16.69
2018-06-27T05:33:55.257Z,16.74
2018-06-27T05:34:55.166Z,16.61
2018-06-27T05:35:55.125Z,16.43
2018-06-27T05:36:55.073Z,16.16
2018-06-27T05:37:55.036Z,16.08
2018-06-27T05:38:55.007Z,16.06
2018-06-27T05:39:54.933Z,16.10
2018-06-27T05:40:54.887Z,16.29
2018-06-27T05:41:54.839Z,16.35
2018-06-27T05:42:54.791Z,16.47
2018-06-27T05:43:54.767Z,16.54
2018-06-27T05:44:54.699Z,16.75
2018-06-27T05:45:54.654Z,16.83
2018-06-27T05:46:54.603Z,16.83
2018-06-27T05:47:54.557Z,16.89
2018-06-27T05:48:54.531Z,16.96
2018-06-27T05:49:54.463Z,16.91
2018-06-27T05:50:54.421Z,16.91
2018-06-27T05:51:54.370Z,16.94
2018-06-27T05:52:54.324Z,16.83
2018-06-27T05:53:54.300Z,16.80
2018-06-27T05:54:54.227Z,16.69
2018-06-27T05:55:54.183Z,16.61
2018-06-27T05:56:54.141Z,16.72
2018-06-27T05:57:54.098Z,16.84
2018-06-27T05:58:54.070Z,16.75
2018-06-27T05:59:53.999Z,16.79
2018-06-27T06:00:53.952Z,16.76
2018-06-27T06:01:53.905Z,16.72
2018-06-27T06:02:53.862Z,16.72
2018-06-27T06:03:53.835Z,16.79
2018-06-27T06:04:53.765Z,16.71
2018-06-27T06:05:53.718Z,16.68
2018-06-27T06:06:53.676Z,16.64
2018-06-27T06:07:53.630Z,16.87
2018-06-27T06:08:53.603Z,16.94
2018-06-27T06:09:53.534Z,17.04
2018-06-27T06:10:53.483Z,17.06
2018-06-27T06:11:53.439Z,17.02
2018-06-27T06:12:53.398Z,17.01
2018-06-27T06:13:53.369Z,16.98
2018-06-27T06:14:53.311Z,17.01
2018-06-27T06:15:53.254Z,17.01
2018-06-27T06:16:53.209Z,17.04
2018-06-27T06:17:53.161Z,17.04
2018-06-27T06:18:53.144Z,16.91
2018-06-27T06:19:53.153Z,16.93
2018-06-27T06:20:53.024Z,16.72
2018-06-27T06:21:52.973Z,16.64
2018-06-27T06:22:52.928Z,16.72
2018-06-27T06:23:52.907Z,16.69
2018-06-27T06:24:52.832Z,16.61
2018-06-27T06:25:52.787Z,16.62
2018-06-27T06:26:52.756Z,16.54
2018-06-27T06:27:52.699Z,16.54
2018-06-27T06:28:52.676Z,16.56
2018-06-27T06:29:52.600Z,16.49
2018-06-27T06:30:52.555Z,16.47
2018-06-27T06:31:52.507Z,16.44
2018-06-27T06:32:52.461Z,16.34
2018-06-27T06:33:52.436Z,16.28
2018-06-27T06:34:52.375Z,16.16
2018-06-27T06:35:52.319Z,16.24
2018-06-27T06:36:52.275Z,16.17
2018-06-27T06:37:52.228Z,16.15
2018-06-27T06:38:52.203Z,16.15
2018-06-27T06:39:52.131Z,16.09
2018-06-27T06:40:52.085Z,16.16
2018-06-27T06:41:52.041Z,16.10
2018-06-27T06:42:51.992Z,16.06
2018-06-27T06:43:51.971Z,16.21
2018-06-27T06:44:51.899Z,16.26
2018-06-27T06:45:51.849Z,16.29
2018-06-27T06:46:51.800Z,16.38
2018-06-27T06:47:51.760Z,16.38
2018-06-27T06:48:51.734Z,16.44
2018-06-27T06:49:51.662Z,16.32
2018-06-27T06:50:51.618Z,16.39
2018-06-27T06:51:51.571Z,16.39
2018-06-27T06:52:51.519Z,16.46
2018-06-27T06:53:51.512Z,16.44
2018-06-27T06:54:51.429Z,16.47
2018-06-27T06:55:51.387Z,16.59
2018-06-27T06:56:51.335Z,16.71
2018-06-27T06:57:51.284Z,16.91
2018-06-27T06:58:51.242Z,16.98
2018-06-27T06:59:51.222Z,17.29
2018-06-27T07:00:51.146Z,17.37
2018-06-27T07:01:51.096Z,17.56
2018-06-27T07:02:51.051Z,17.65
2018-06-27T07:03:51.004Z,17.88
2018-06-27T07:04:51.066Z,17.89
2018-06-27T07:05:50.925Z,18.04
2018-06-27T07:06:50.865Z,18.12
2018-06-27T07:07:50.816Z,18.26
2018-06-27T07:08:50.771Z,18.33
2018-06-27T07:09:50.748Z,18.46
2018-06-27T07:10:50.680Z,18.56
2018-06-27T07:11:50.635Z,18.71
2018-06-27T07:12:50.586Z,18.78
2018-06-27T07:13:50.540Z,18.78
2018-06-27T07:14:50.519Z,18.89
2018-06-27T07:15:50.447Z,18.83
2018-06-27T07:16:50.408Z,18.68
2018-06-27T07:17:50.391Z,18.67
2018-06-27T07:18:50.308Z,18.56
2018-06-27T07:19:50.290Z,18.62
2018-06-27T07:20:50.222Z,18.73
2018-06-27T07:21:50.170Z,18.81
2018-06-27T07:22:50.127Z,18.80
2018-06-27T07:23:50.081Z,18.89
2018-06-27T07:24:50.055Z,18.99
2018-06-27T07:25:49.992Z,19.07
2018-06-27T07:26:49.946Z,19.26
2018-06-27T07:27:49.898Z,19.41
2018-06-27T07:28:49.886Z,19.39
2018-06-27T07:29:49.849Z,19.42
2018-06-27T07:30:49.762Z,19.46
2018-06-27T07:31:49.716Z,19.71
2018-06-27T07:32:49.670Z,19.86
2018-06-27T07:33:49.636Z,20.00
2018-06-27T07:34:49.609Z,20.04
2018-06-27T07:35:49.538Z,20.18
2018-06-27T07:36:49.489Z,20.33
2018-06-27T07:37:49.444Z,20.53
2018-06-27T07:38:49.401Z,20.59
2018-06-27T07:39:49.375Z,20.63
2018-06-27T07:40:49.312Z,20.77
2018-06-27T07:41:49.259Z,20.67
2018-06-27T07:42:49.221Z,20.60
2018-06-27T07:43:49.177Z,20.47
2018-06-27T07:44:49.151Z,20.24
2018-06-27T07:45:49.086Z,20.19
2018-06-27T07:46:49.038Z,20.24
2018-06-27T07:47:49.003Z,20.10
2018-06-27T07:48:48.951Z,20.18
2018-06-27T07:49:48.946Z,20.28
2018-06-27T07:50:48.861Z,20.44
2018-06-27T07:51:48.818Z,20.50
2018-06-27T07:52:48.772Z,20.56
2018-06-27T07:53:48.729Z,20.71
2018-06-27T07:54:48.704Z,20.78
2018-06-27T07:55:48.636Z,20.82
2018-06-27T07:56:48.595Z,20.74
2018-06-27T07:57:48.549Z,21.02
2018-06-27T07:58:48.502Z,20.93
2018-06-27T07:59:48.484Z,20.97
2018-06-27T08:00:48.417Z,20.96
2018-06-27T08:01:48.370Z,21.06
2018-06-27T08:02:48.327Z,21.08
2018-06-27T08:03:48.287Z,21.10
2018-06-27T08:04:48.261Z,21.10
2018-06-27T08:05:48.251Z,21.17
2018-06-27T08:06:48.149Z,21.22
2018-06-27T08:07:48.103Z,21.26
2018-06-27T08:08:48.056Z,21.29
2018-06-27T08:09:48.040Z,21.29
2018-06-27T08:10:47.968Z,21.26
2018-06-27T08:11:47.928Z,21.36
2018-06-27T08:12:47.884Z,21.29
2018-06-27T08:13:47.840Z,21.30
2018-06-27T08:14:47.819Z,21.26
2018-06-27T08:15:47.762Z,21.10
2018-06-27T08:16:47.703Z,21.21
2018-06-27T08:17:47.733Z,21.18
2018-06-27T08:18:47.615Z,21.29
2018-06-27T08:19:47.598Z,21.32
2018-06-27T08:20:47.530Z,21.35
2018-06-27T08:21:47.482Z,21.42
2018-06-27T08:22:47.440Z,21.30
2018-06-27T08:23:47.397Z,21.42
2018-06-27T08:24:47.380Z,21.37
2018-06-27T08:25:47.310Z,21.52
2018-06-27T08:26:47.268Z,21.63
2018-06-27T08:27:47.227Z,21.79
2018-06-27T08:28:47.179Z,21.88
2018-06-27T08:29:47.131Z,21.96
2018-06-27T08:30:47.114Z,22.01
2018-06-27T08:31:47.042Z,21.59
2018-06-27T08:32:47.002Z,21.42
2018-06-27T08:33:46.962Z,21.45
2018-06-27T08:34:46.918Z,21.40
2018-06-27T08:35:46.898Z,21.40
2018-06-27T08:36:46.826Z,21.33
2018-06-27T08:37:46.782Z,21.37
2018-06-27T08:38:46.742Z,21.40
2018-06-27T08:39:46.701Z,21.55
2018-06-27T08:40:46.672Z,21.59
2018-06-27T08:41:46.604Z,21.79
2018-06-27T08:42:46.565Z,21.72
2018-06-27T08:43:46.599Z,21.77
2018-06-27T08:44:46.472Z,21.90
2018-06-27T08:45:46.464Z,21.88
2018-06-27T08:46:46.383Z,21.85
2018-06-27T08:47:46.345Z,21.85
2018-06-27T08:48:46.296Z,21.73
2018-06-27T08:49:46.255Z,21.66
2018-06-27T08:50:46.233Z,21.66
2018-06-27T08:51:46.168Z,21.72
2018-06-27T08:52:46.125Z,21.63
2018-06-27T08:53:46.082Z,21.45
2018-06-27T08:54:46.042Z,21.42
2018-06-27T08:55:46.018Z,21.37
2018-06-27T08:56:45.949Z,21.45
2018-06-27T08:57:45.903Z,21.65
2018-06-27T08:58:45.910Z,21.50
2018-06-27T08:59:45.824Z,21.48
2018-06-27T09:00:45.794Z,21.57
2018-06-27T09:01:45.725Z,21.54
2018-06-27T09:02:45.686Z,21.61
2018-06-27T09:03:45.639Z,21.66
2018-06-27T09:04:45.597Z,21.69
2018-06-27T09:05:45.575Z,21.66
2018-06-27T09:06:45.512Z,21.74
2018-06-27T09:07:45.527Z,21.73
2018-06-27T09:08:45.423Z,21.77
2018-06-27T09:09:45.375Z,21.69
2018-06-27T09:10:45.357Z,21.79
2018-06-27T09:11:45.291Z,21.93
2018-06-27T09:12:45.244Z,21.96
2018-06-27T09:13:45.209Z,21.84
2018-06-27T09:14:45.160Z,21.82
2018-06-27T09:15:45.136Z,21.85
2018-06-27T09:16:45.075Z,21.81
2018-06-27T09:17:45.026Z,21.85
2018-06-27T09:18:44.981Z,21.93
2018-06-27T09:19:44.944Z,22.03
2018-06-27T09:20:44.921Z,22.01
2018-06-27T09:21:44.853Z,22.05
2018-06-27T09:22:44.809Z,21.92
2018-06-27T09:23:44.763Z,22.04
2018-06-27T09:24:44.715Z,22.10
2018-06-27T09:25:44.697Z,21.96
2018-06-27T09:26:44.629Z,22.10
2018-06-27T09:27:44.596Z,22.13
2018-06-27T09:28:44.541Z,22.20
2018-06-27T09:29:44.499Z,22.28
2018-06-27T09:30:44.475Z,22.23
2018-06-27T09:31:44.409Z,22.35
2018-06-27T09:32:44.364Z,22.48
2018-06-27T09:33:44.322Z,22.56
2018-06-27T09:34:44.277Z,22.66
2018-06-27T09:35:44.259Z,22.77
2018-06-27T09:36:45.130Z,22.88
2018-06-27T09:37:44.159Z,22.98
2018-06-27T09:38:44.106Z,22.96
2018-06-27T09:39:44.062Z,23.05
2018-06-27T09:40:44.041Z,22.90
2018-06-27T09:41:43.983Z,22.78
2018-06-27T09:42:43.929Z,22.70
2018-06-27T09:43:43.885Z,22.75
2018-06-27T09:44:43.842Z,22.77
2018-06-27T09:45:43.822Z,22.91
2018-06-27T09:46:43.760Z,22.99
2018-06-27T09:47:43.719Z,22.88
2018-06-27T09:48:43.670Z,22.90
2018-06-27T09:49:43.628Z,22.90
2018-06-27T09:50:43.608Z,22.87
2018-06-27T09:51:43.540Z,22.90
2018-06-27T09:52:43.503Z,22.99
2018-06-27T09:53:43.455Z,23.02
2018-06-27T09:54:43.411Z,22.87
2018-06-27T09:55:43.400Z,23.03
2018-06-27T09:56:43.379Z,23.00
2018-06-27T09:57:43.282Z,22.96
2018-06-27T09:58:43.236Z,23.09
2018-06-27T09:59:43.196Z,23.00
2018-06-27T10:00:43.147Z,22.99
2018-06-27T10:01:43.131Z,22.98
2018-06-27T10:02:43.063Z,22.98
2018-06-27T10:03:43.023Z,22.88
2018-06-27T10:04:42.980Z,23.13
2018-06-27T10:05:42.942Z,23.14
2018-06-27T10:06:42.923Z,23.25
2018-06-27T10:07:42.906Z,23.40
2018-06-27T10:08:42.808Z,23.40
2018-06-27T10:09:42.761Z,23.56
2018-06-27T10:10:42.722Z,23.41
2018-06-27T10:11:42.704Z,23.48
2018-06-27T10:12:42.637Z,23.46
2018-06-27T10:13:42.601Z,23.56
2018-06-27T10:14:42.552Z,23.56
2018-06-27T10:15:42.504Z,23.59
2018-06-27T10:16:42.488Z,23.62
2018-06-27T10:17:42.418Z,23.62
2018-06-27T10:18:42.377Z,23.51
2018-06-27T10:19:42.389Z,23.55
2018-06-27T10:20:42.290Z,23.61
2018-06-27T10:21:42.276Z,23.65
2018-06-27T10:22:42.285Z,23.83
2018-06-27T10:23:42.166Z,23.76
2018-06-27T10:24:42.120Z,23.68
2018-06-27T10:25:42.079Z,23.71
2018-06-27T10:26:42.062Z,23.76
2018-06-27T10:27:41.993Z,23.73
2018-06-27T10:28:41.946Z,23.76
2018-06-27T10:29:41.906Z,23.86
2018-06-27T10:30:41.862Z,23.92
2018-06-27T10:31:41.845Z,24.15
2018-06-27T10:32:41.778Z,24.11
2018-06-27T10:33:41.737Z,23.96
2018-06-27T10:34:41.695Z,23.93
2018-06-27T10:35:41.716Z,23.86
2018-06-27T10:36:41.643Z,23.92
2018-06-27T10:37:41.563Z,23.92
2018-06-27T10:38:49.188Z,23.83
2018-06-27T10:39:41.481Z,23.84
2018-06-27T10:40:41.439Z,23.99
2018-06-27T10:41:41.418Z,24.00
2018-06-27T10:42:41.351Z,24.08
2018-06-27T10:43:41.312Z,24.11
2018-06-27T10:44:41.268Z,24.03
2018-06-27T10:45:41.227Z,24.10
2018-06-27T10:46:41.211Z,23.95
2018-06-27T10:47:41.146Z,24.02
2018-06-27T10:48:41.098Z,24.18
2018-06-27T10:49:41.061Z,24.13
2018-06-27T10:50:48.056Z,24.03
2018-06-27T10:51:40.995Z,23.96
2018-06-27T10:52:40.933Z,23.98
2018-06-27T10:53:40.882Z,23.95
2018-06-27T10:54:40.844Z,24.02
2018-06-27T10:55:40.803Z,24.13
2018-06-27T10:56:40.784Z,24.15
2018-06-27T10:57:40.716Z,24.07
2018-06-27T10:58:40.675Z,23.95
2018-06-27T10:59:40.629Z,23.76
2018-06-27T11:00:40.591Z,23.61
2018-06-27T11:01:40.580Z,23.63
2018-06-27T11:02:40.504Z,23.61
2018-06-27T11:03:40.466Z,23.68
2018-06-27T11:04:40.423Z,23.80
2018-06-27T11:05:40.381Z,23.89
2018-06-27T11:06:40.358Z,23.88
2018-06-27T11:07:40.293Z,23.93
2018-06-27T11:08:40.248Z,23.78
2018-06-27T11:09:40.213Z,23.78
2018-06-27T11:10:40.169Z,23.88
2018-06-27T11:11:40.147Z,23.90
2018-06-27T11:12:40.080Z,23.92
2018-06-27T11:13:40.036Z,23.88
2018-06-27T11:14:40.004Z,23.84
2018-06-27T11:15:39.951Z,24.03
2018-06-27T11:16:39.947Z,23.92
2018-06-27T11:17:39.871Z,23.98
2018-06-27T11:18:39.826Z,24.17
2018-06-27T11:19:39.782Z,24.15
2018-06-27T11:20:39.742Z,24.11
2018-06-27T11:21:39.699Z,24.23
2018-06-27T11:22:39.679Z,24.13
2018-06-27T11:23:39.613Z,24.21
2018-06-27T11:24:39.569Z,24.18
2018-06-27T11:25:39.530Z,24.35
2018-06-27T11:26:39.487Z,24.35
2018-06-27T11:27:39.463Z,24.35
2018-06-27T11:28:39.400Z,24.37
2018-06-27T11:29:39.360Z,24.26
2018-06-27T11:30:39.315Z,24.08
2018-06-27T11:31:39.280Z,24.00
2018-06-27T11:32:39.254Z,24.02
2018-06-27T11:33:39.196Z,24.14
2018-06-27T11:34:39.143Z,24.25
2018-06-27T11:35:39.105Z,24.23
2018-06-27T11:36:39.063Z,24.15
2018-06-27T11:37:39.042Z,24.33
2018-06-27T11:38:39.106Z,24.20
2018-06-27T11:39:38.934Z,24.25
2018-06-27T11:40:38.892Z,24.25
2018-06-27T11:41:38.864Z,24.18
2018-06-27T11:42:38.831Z,24.13
2018-06-27T11:43:38.763Z,24.08
2018-06-27T11:44:38.822Z,24.11
2018-06-27T11:45:38.683Z,23.90
2018-06-27T11:46:38.635Z,24.02
2018-06-27T11:47:38.614Z,23.90
2018-06-27T11:48:38.551Z,23.89
2018-06-27T11:49:38.509Z,23.80
2018-06-27T11:50:38.463Z,23.84
2018-06-27T11:51:38.422Z,23.96
2018-06-27T11:52:38.399Z,23.92
2018-06-27T11:53:38.339Z,24.07
2018-06-27T11:54:38.292Z,24.13
2018-06-27T11:55:38.253Z,24.11
2018-06-27T11:56:38.208Z,24.10
2018-06-27T11:57:38.189Z,24.00
2018-06-27T11:58:38.124Z,23.80
2018-06-27T11:59:38.090Z,23.89
2018-06-27T12:00:38.037Z,23.84
2018-06-27T12:01:37.992Z,23.92
2018-06-27T12:02:37.973Z,23.90
2018-06-27T12:03:37.917Z,23.95
2018-06-27T12:04:37.864Z,23.92
2018-06-27T12:05:37.824Z,24.05
2018-06-27T12:06:37.790Z,24.08
2018-06-27T12:07:37.764Z,24.13
2018-06-27T12:08:37.700Z,24.10
2018-06-27T12:09:37.650Z,23.92
2018-06-27T12:10:37.607Z,23.88
2018-06-27T12:11:37.588Z,24.08
2018-06-27T12:12:37.549Z,24.02
2018-06-27T12:13:37.479Z,24.15
2018-06-27T12:14:37.439Z,24.25
2018-06-27T12:15:37.396Z,24.21
2018-06-27T12:16:37.352Z,24.25
2018-06-27T12:17:37.332Z,24.29
2018-06-27T12:18:37.263Z,24.29
2018-06-27T12:19:37.225Z,24.29
2018-06-27T12:20:37.179Z,24.39
2018-06-27T12:21:37.150Z,24.47
2018-06-27T12:22:37.118Z,24.36
2018-06-27T12:23:37.052Z,24.36
2018-06-27T12:24:37.057Z,24.29
2018-06-27T12:25:36.969Z,24.25
2018-06-27T12:26:36.923Z,24.26
2018-06-27T12:27:36.905Z,24.26
2018-06-27T12:28:36.852Z,24.26
2018-06-27T12:29:36.796Z,24.29
2018-06-27T12:30:36.753Z,24.21
2018-06-27T12:31:36.707Z,24.26
2018-06-27T12:32:36.693Z,24.28
2018-06-27T12:33:36.624Z,24.30
2018-06-27T12:34:36.584Z,24.44
2018-06-27T12:35:36.543Z,24.33
2018-06-27T12:36:36.493Z,24.30
2018-06-27T12:37:36.474Z,24.28
2018-06-27T12:38:36.414Z,24.21
2018-06-27T12:39:36.369Z,24.23
2018-06-27T12:40:36.329Z,24.15
2018-06-27T12:41:36.281Z,24.11
2018-06-27T12:42:36.261Z,23.92
2018-06-27T12:43:36.195Z,24.02
2018-06-27T12:44:36.155Z,24.15
2018-06-27T12:45:36.111Z,24.21
2018-06-27T12:46:36.069Z,24.17
2018-06-27T12:47:36.066Z,24.13
2018-06-27T12:48:35.986Z,24.28
2018-06-27T12:49:35.940Z,24.26
2018-06-27T12:50:35.903Z,24.21
2018-06-27T12:51:35.857Z,24.29